Airfield :
LOGIN :

Register | Disclaimer

   EN    FR    IT 

 










Legend :    VFR   Marginal VFR   IFR   Intensive IFR   Very Intensive IFR
Visi :
Ceiling :
>= 8 km
>= 3000ft
5 to 8 km
1000 to 3000 ft
1500m to 5 km
500 to 1000 ft
800 to 1500m
200 to 500 ft
< 800m
< 200 ft
Symbols :   Thunderstorms  Fog  Heavy snow  Heavy precipitations  Wind > 20 kt
SIGMETs :     Misc.  Thunderstorms  Icing  Turbulence  Mountain Waves  Volcanic Ashes






- Airport Elevation : 1058 ft
- IATA code : SCN


EDDR - Saarbrücken

CURRENT METAR :
  • 271820Z 21013G24KT 9999 -RA BKN009 BKN013 05/04 Q1006 NOSIG

EXPIRED METARs :
  • 271750Z 21015KT 9999 -RA BKN009 BKN013 05/04 Q1006 TEMPO 4000 RA
  • 271720Z 21016KT 6000 -RA BKN008 05/05 Q1007 TEMPO 4000 RA
  • 271650Z 20015KT 7000 -RA BKN009 05/05 Q1007 TEMPO 4000 RA
  • 271620Z 20016KT 7000 -RA BKN009 05/05 Q1007 TEMPO 4000 RA
  • 271550Z 21015KT 7000 -RA BKN009 05/05 Q1008 TEMPO 4000 RA

TAF TAF EDDR
Valid from the 27 at 18:00 until the 28 at 18:00 UTC


271700Z 2718/2818 21015G25KT 8000 BKN015
TEMPO 2718/2724 4000 RA BKN006
BECMG 2723/2802 22020G35KT
TEMPO 2802/2809 3500 SHRA BKN012CB
TEMPO 2806/2815 23025G40KT
PROB30
TEMPO 2809/2815 1200 TSGSRA BKN008CB
TEMPO 2809/2818 2000 SHRASN BKN010CB



MET'MAP, your aeronautical weather chart ! - Copyright ORBIFLY December 2007 - Disclaimer

ORBIFLY MET'MAP TEAM :

Programming & Development : Alexandra Zaïnal
Concept & original design : Baudouin d'Aumeries
Assistance for programming : Marc-Olivier Méhu
Technical & hardware support : Manuel Goepfert

Contact : metmap@orbifly.com




SOURCES & CREDITS :

   NOAA